createdAt,value
2023-01-19T00:01:31.648Z,363.90
2023-01-19T00:03:58.795Z,387.67
2023-01-19T00:06:26.522Z,317.75
2023-01-19T00:08:53.797Z,390.95
2023-01-19T00:11:21.349Z,429.48
2023-01-19T00:13:52.108Z,416.67
2023-01-19T00:16:22.654Z,332.77
2023-01-19T00:18:52.119Z,363.00
2023-01-19T00:21:21.724Z,350.90
2023-01-19T00:23:51.342Z,324.10
2023-01-19T00:26:19.636Z,351.02
2023-01-19T00:28:46.963Z,353.95
2023-01-19T00:31:14.465Z,326.10
2023-01-19T00:33:41.684Z,317.15
2023-01-19T00:36:09.889Z,294.25
2023-01-19T00:38:37.327Z,287.48
2023-01-19T00:41:04.916Z,270.48
2023-01-19T00:43:32.077Z,277.08
2023-01-19T00:45:59.703Z,270.77
2023-01-19T00:48:26.967Z,282.20
2023-01-19T00:50:54.512Z,273.15
2023-01-19T00:53:22.145Z,265.65
2023-01-19T00:55:49.632Z,271.15
2023-01-19T00:58:16.893Z,265.38
2023-01-19T01:00:45.016Z,257.45
2023-01-19T01:03:12.355Z,292.83
2023-01-19T01:05:43.006Z,290.50
2023-01-19T01:08:10.236Z,344.83
2023-01-19T01:10:37.714Z,360.17
2023-01-19T01:13:20.469Z,324.95
2023-01-19T01:15:53.083Z,299.70
2023-01-19T01:18:21.231Z,351.95
2023-01-19T01:20:49.034Z,405.55
2023-01-19T01:23:16.358Z,404.83
2023-01-19T01:25:43.857Z,383.88
2023-01-19T01:28:11.028Z,321.15
2023-01-19T01:30:41.539Z,283.38
2023-01-19T01:33:08.799Z,282.27
2023-01-19T01:35:36.285Z,282.52
2023-01-19T01:38:04.008Z,288.65
2023-01-19T01:40:32.611Z,284.05
2023-01-19T01:43:00.148Z,278.58
2023-01-19T01:45:36.544Z,270.17
2023-01-19T01:48:06.888Z,279.75
2023-01-19T01:50:37.155Z,275.08
2023-01-19T01:53:15.434Z,291.52
2023-01-19T01:55:49.215Z,270.75
2023-01-19T01:58:17.010Z,283.58
2023-01-19T02:01:03.716Z,211.90
2023-01-19T02:03:32.695Z,203.15
2023-01-19T02:06:07.102Z,228.15
2023-01-19T02:09:14.287Z,225.55
2023-01-19T02:14:27.956Z,247.05
2023-01-19T02:16:55.481Z,267.92
2023-01-19T02:19:31.426Z,279.42
2023-01-19T02:22:06.377Z,284.92
2023-01-19T02:24:33.877Z,264.08
2023-01-19T02:27:01.867Z,273.52
2023-01-19T02:29:29.512Z,274.33
2023-01-19T02:31:57.493Z,273.55
2023-01-19T02:34:24.787Z,290.20
2023-01-19T02:36:58.415Z,268.42
2023-01-19T02:39:32.927Z,267.25
2023-01-19T02:42:05.537Z,263.17
2023-01-19T02:44:35.332Z,270.70
2023-01-19T02:47:04.846Z,271.45
2023-01-19T02:49:32.034Z,284.35
2023-01-19T02:52:01.225Z,281.58
2023-01-19T02:54:49.747Z,279.50
2023-01-19T02:57:31.722Z,272.27
2023-01-19T03:00:08.297Z,270.33
2023-01-19T03:02:54.539Z,273.27
2023-01-19T03:05:30.906Z,264.48
2023-01-19T03:08:13.270Z,262.50
2023-01-19T03:11:01.003Z,264.55
2023-01-19T03:13:47.393Z,265.85
2023-01-19T03:16:33.118Z,276.70
2023-01-19T03:19:10.449Z,271.98
2023-01-19T03:21:40.764Z,292.35
2023-01-19T03:24:11.502Z,364.15
2023-01-19T03:26:56.343Z,300.17
2023-01-19T03:29:28.312Z,308.05
2023-01-19T03:31:59.962Z,303.08
2023-01-19T03:34:29.096Z,307.15
2023-01-19T03:37:02.973Z,308.48
2023-01-19T03:39:31.372Z,264.65
2023-01-19T03:42:03.321Z,269.10
2023-01-19T03:44:34.616Z,289.05
2023-01-19T03:47:04.540Z,284.27
2023-01-19T03:49:34.636Z,298.50
2023-01-19T03:52:02.336Z,329.95
2023-01-19T03:54:30.088Z,420.67
2023-01-19T03:56:57.249Z,299.70
2023-01-19T03:59:24.799Z,255.20
2023-01-19T04:01:52.537Z,256.45
2023-01-19T04:04:20.038Z,240.95
2023-01-19T04:06:47.492Z,243.63
2023-01-19T04:09:15.035Z,239.65
2023-01-19T04:11:42.316Z,286.85
2023-01-19T04:14:09.777Z,257.52
2023-01-19T04:16:37.536Z,250.80
2023-01-19T04:19:05.059Z,228.85
2023-01-19T04:21:32.270Z,220.52
2023-01-19T04:23:59.899Z,198.95
2023-01-19T04:26:27.098Z,201.15
2023-01-19T04:28:54.607Z,217.80
2023-01-19T04:31:23.423Z,236.90
2023-01-19T04:33:50.931Z,230.25
2023-01-19T04:36:18.090Z,238.10
2023-01-19T04:38:46.769Z,253.40
2023-01-19T04:41:13.961Z,248.30
2023-01-19T04:43:41.677Z,247.77
2023-01-19T04:46:08.893Z,224.85
2023-01-19T04:48:36.529Z,224.95
2023-01-19T04:51:03.867Z,199.27
2023-01-19T04:53:31.442Z,205.35
2023-01-19T04:56:00.796Z,195.65
2023-01-19T04:58:28.378Z,177.30
2023-01-19T05:00:55.646Z,190.73
2023-01-19T05:03:24.953Z,184.10
2023-01-19T05:05:52.951Z,179.95
2023-01-19T05:08:20.401Z,193.25
2023-01-19T05:10:48.651Z,195.85
2023-01-19T05:13:16.178Z,179.73
2023-01-19T05:15:43.559Z,176.48
2023-01-19T05:18:11.603Z,146.38
2023-01-19T05:20:40.305Z,139.02
2023-01-19T05:23:07.949Z,132.57
2023-01-19T05:25:35.129Z,115.38
2023-01-19T05:28:03.418Z,77.00
2023-01-19T05:30:31.088Z,77.57
2023-01-19T05:32:59.155Z,57.40
2023-01-19T05:35:35.726Z,42.53
2023-01-19T05:38:04.548Z,42.53
2023-01-19T05:40:31.888Z,34.13
2023-01-19T05:43:01.525Z,32.33
2023-01-19T05:45:29.024Z,33.05
2023-01-19T05:47:56.828Z,30.45
2023-01-19T05:50:24.216Z,31.17
2023-01-19T05:52:53.582Z,33.03
2023-01-19T05:55:21.655Z,39.00
2023-01-19T05:57:49.524Z,91.80
2023-01-19T06:00:16.947Z,142.65
2023-01-19T06:02:44.791Z,156.45
2023-01-19T06:05:12.129Z,114.43
2023-01-19T06:07:39.782Z,188.18
2023-01-19T06:10:07.752Z,326.25
2023-01-19T06:12:37.488Z,254.73
2023-01-19T06:15:05.461Z,170.82
2023-01-19T06:17:33.943Z,66.60
2023-01-19T06:20:01.102Z,49.63
2023-01-19T06:22:28.664Z,65.82
2023-01-19T06:24:55.828Z,62.47
2023-01-19T06:27:23.386Z,79.00
2023-01-19T06:29:50.619Z,64.65
2023-01-19T06:32:18.128Z,85.68
2023-01-19T06:34:46.670Z,72.95
2023-01-19T06:37:16.309Z,55.85
2023-01-19T06:39:45.491Z,54.78
2023-01-19T06:42:13.038Z,51.97
2023-01-19T06:44:47.515Z,54.42
2023-01-19T06:47:16.516Z,72.18
2023-01-19T06:49:44.319Z,79.47
2023-01-19T06:52:16.194Z,80.47
2023-01-19T06:54:46.892Z,84.50
2023-01-19T06:57:14.775Z,101.25
2023-01-19T06:59:42.192Z,100.80
2023-01-19T07:02:26.280Z,101.15
2023-01-19T07:04:56.783Z,88.40
2023-01-19T07:07:24.472Z,68.10
2023-01-19T07:09:53.928Z,49.28
2023-01-19T07:12:22.803Z,43.05
2023-01-19T07:14:50.186Z,36.42
2023-01-19T07:17:17.701Z,36.05
2023-01-19T07:19:46.518Z,29.60
2023-01-19T07:22:13.969Z,33.05
2023-01-19T07:24:41.526Z,32.63
2023-01-19T07:27:11.663Z,31.77
2023-01-19T07:29:39.422Z,28.42
2023-01-19T07:32:07.754Z,28.38
2023-01-19T07:34:34.931Z,34.40
2023-01-19T07:37:02.669Z,35.90
2023-01-19T07:39:30.962Z,36.72
2023-01-19T07:41:58.541Z,32.13
2023-01-19T07:44:25.712Z,34.53
2023-01-19T07:46:53.251Z,37.08
2023-01-19T07:49:20.833Z,39.10
2023-01-19T07:51:48.726Z,64.20
2023-01-19T07:54:15.940Z,167.00
2023-01-19T07:56:43.552Z,160.10
2023-01-19T07:59:11.266Z,118.55
2023-01-19T08:01:39.071Z,85.90
2023-01-19T08:04:06.551Z,52.75
2023-01-19T08:06:37.048Z,73.20
2023-01-19T08:09:08.665Z,54.42
2023-01-19T08:11:36.900Z,45.97
2023-01-19T08:14:06.304Z,45.00
2023-01-19T08:16:36.190Z,33.17
2023-01-19T08:19:04.056Z,25.40
2023-01-19T08:21:33.433Z,18.05
2023-01-19T08:24:00.608Z,13.55
2023-01-19T08:26:33.884Z,12.50
2023-01-19T08:29:04.001Z,11.77
2023-01-19T08:31:31.906Z,13.70
2023-01-19T08:33:59.448Z,11.18
2023-01-19T08:36:27.132Z,15.55
2023-01-19T08:38:54.532Z,36.22
2023-01-19T08:41:22.770Z,56.90
2023-01-19T08:43:50.619Z,65.53
2023-01-19T08:46:21.017Z,61.10
2023-01-19T08:48:51.097Z,48.60
2023-01-19T08:51:18.902Z,45.47
2023-01-19T08:53:46.231Z,51.42
2023-01-19T08:56:14.593Z,51.75
2023-01-19T08:58:43.889Z,43.70
2023-01-19T09:01:15.095Z,37.00
2023-01-19T09:03:44.122Z,38.15
2023-01-19T09:06:14.874Z,30.58
2023-01-19T09:08:42.134Z,21.48
2023-01-19T09:11:14.834Z,43.42
2023-01-19T09:21:26.180Z,47.15
2023-01-19T09:23:54.900Z,75.05
2023-01-19T09:26:23.841Z,68.50
2023-01-19T09:28:51.433Z,40.40
2023-01-19T09:31:18.735Z,51.45
2023-01-19T09:33:46.400Z,27.48
2023-01-19T09:36:13.515Z,17.50
2023-01-19T09:38:41.006Z,23.50
2023-01-19T09:41:26.802Z,30.40
2023-01-19T09:43:59.341Z,24.20
2023-01-19T09:46:41.583Z,25.10
2023-01-19T09:49:44.783Z,28.52
2023-01-19T09:52:33.609Z,19.00
2023-01-19T09:55:02.156Z,20.17
2023-01-19T09:57:36.278Z,13.63
2023-01-19T10:00:13.609Z,14.05
2023-01-19T10:03:03.695Z,10.85
2023-01-19T10:05:44.919Z,13.18
2023-01-19T10:08:30.270Z,11.93
2023-01-19T10:10:58.851Z,13.05
2023-01-19T10:13:47.319Z,14.50
2023-01-19T10:16:39.786Z,15.48
2023-01-19T10:19:12.978Z,22.20
2023-01-19T10:21:45.421Z,26.52
2023-01-19T10:24:12.600Z,28.63
2023-01-19T10:26:49.964Z,35.78
2023-01-19T10:29:23.092Z,24.08
2023-01-19T10:31:53.088Z,22.17
2023-01-19T10:34:23.376Z,26.23
2023-01-19T10:36:59.127Z,22.88
2023-01-19T10:39:26.659Z,25.55
2023-01-19T10:41:54.242Z,23.02
2023-01-19T10:44:34.848Z,14.73
2023-01-19T10:47:02.689Z,15.18
2023-01-19T10:49:37.650Z,16.77
2023-01-19T10:52:07.870Z,14.37
2023-01-19T10:54:37.451Z,12.40
2023-01-19T10:57:09.989Z,16.92
2023-01-19T10:59:49.784Z,15.60
2023-01-19T11:02:26.686Z,10.98
2023-01-19T11:04:56.885Z,20.13
2023-01-19T11:07:29.716Z,18.75
2023-01-19T11:10:15.809Z,18.13
2023-01-19T11:13:01.459Z,15.70
2023-01-19T11:15:34.980Z,11.10
2023-01-19T11:18:05.514Z,20.13
2023-01-19T11:20:48.427Z,17.05
2023-01-19T11:23:22.375Z,17.08
2023-01-19T11:25:52.246Z,13.23
2023-01-19T11:28:44.997Z,14.15
2023-01-19T11:31:15.078Z,9.77
2023-01-19T11:33:50.936Z,14.93
2023-01-19T11:36:24.683Z,15.10
2023-01-19T11:38:55.156Z,12.23
2023-01-19T11:41:26.530Z,10.93
2023-01-19T11:43:57.634Z,8.82
2023-01-19T11:46:30.353Z,9.73
2023-01-19T11:49:15.832Z,11.40
2023-01-19T11:52:27.629Z,11.43
2023-01-19T11:55:14.834Z,10.55
2023-01-19T11:57:51.966Z,10.45
2023-01-19T12:00:36.218Z,11.23
2023-01-19T12:03:11.972Z,11.23
2023-01-19T12:05:49.073Z,11.38
2023-01-19T12:08:23.596Z,12.10
2023-01-19T12:10:55.692Z,16.50
2023-01-19T12:13:25.890Z,17.10
2023-01-19T12:16:08.905Z,19.30
2023-01-19T12:18:42.525Z,12.90
2023-01-19T12:21:10.519Z,9.35
2023-01-19T12:24:02.385Z,11.85
2023-01-19T12:26:38.577Z,11.30
2023-01-19T12:29:11.929Z,9.13
2023-01-19T12:31:41.050Z,10.85
2023-01-19T12:34:32.171Z,16.08
2023-01-19T12:37:05.093Z,19.88
2023-01-19T12:39:35.495Z,7.13
2023-01-19T12:42:06.165Z,4.07
2023-01-19T12:44:34.571Z,7.28
2023-01-19T12:47:20.451Z,16.27
2023-01-19T12:49:52.039Z,34.03
2023-01-19T12:52:34.947Z,28.13
2023-01-19T12:55:14.142Z,21.92
2023-01-19T12:57:47.804Z,18.00
2023-01-19T13:00:24.240Z,17.95
2023-01-19T13:02:53.544Z,9.35
2023-01-19T13:05:39.515Z,11.73
2023-01-19T13:08:07.908Z,18.60
2023-01-19T13:10:54.602Z,15.32
2023-01-19T13:13:25.776Z,12.38
2023-01-19T13:15:55.897Z,12.38
2023-01-19T13:18:28.664Z,14.20
2023-01-19T13:21:05.571Z,11.10
2023-01-19T13:23:45.079Z,21.23
2023-01-19T13:26:15.882Z,18.20
2023-01-19T13:28:55.747Z,16.63
2023-01-19T13:31:26.165Z,15.52
2023-01-19T13:34:00.219Z,14.18
2023-01-19T13:36:41.566Z,12.93
2023-01-19T13:39:20.307Z,17.83
2023-01-19T13:41:49.730Z,20.55
2023-01-19T13:44:42.241Z,17.38
2023-01-19T13:47:19.551Z,33.42
2023-01-19T13:49:51.304Z,33.00
2023-01-19T13:52:27.887Z,17.23
2023-01-19T13:55:01.328Z,12.15
2023-01-19T13:57:40.758Z,10.55
2023-01-19T14:00:17.355Z,8.23
2023-01-19T14:02:59.599Z,10.43
2023-01-19T14:05:27.346Z,15.35
2023-01-19T14:08:13.737Z,21.25
2023-01-19T14:11:02.235Z,26.13
2023-01-19T14:13:35.123Z,28.85
2023-01-19T14:16:16.030Z,22.42
2023-01-19T14:18:45.837Z,17.92
2023-01-19T14:21:15.258Z,13.45
2023-01-19T14:23:52.948Z,15.88
2023-01-19T14:26:38.732Z,14.52
2023-01-19T14:29:15.599Z,13.43
2023-01-19T14:32:06.064Z,17.05
2023-01-19T14:34:41.598Z,13.70
2023-01-19T14:37:24.228Z,13.85
2023-01-19T14:40:24.704Z,14.40
2023-01-19T14:43:00.203Z,16.27
2023-01-19T14:45:32.719Z,17.43
2023-01-19T14:48:04.901Z,22.60
2023-01-19T14:50:41.519Z,21.25
2023-01-19T14:53:17.805Z,16.45
2023-01-19T14:55:49.748Z,16.15
2023-01-19T14:58:20.820Z,15.60
2023-01-19T15:00:49.368Z,21.20
2023-01-19T15:03:17.276Z,17.38
2023-01-19T15:05:46.440Z,17.88
2023-01-19T15:08:33.733Z,16.30
2023-01-19T15:11:12.378Z,18.52
2023-01-19T15:13:41.752Z,23.90
2023-01-19T15:16:11.470Z,23.10
2023-01-19T15:18:39.111Z,28.98
2023-01-19T15:21:06.542Z,28.13
2023-01-19T15:23:34.132Z,29.52
2023-01-19T15:26:03.854Z,38.53
2023-01-19T15:28:31.704Z,58.83
2023-01-19T15:31:00.118Z,51.53
2023-01-19T15:33:32.973Z,52.78
2023-01-19T15:36:00.256Z,71.40
2023-01-19T15:38:28.082Z,69.05
2023-01-19T15:40:56.390Z,54.42
2023-01-19T15:43:23.986Z,72.47
2023-01-19T15:46:01.773Z,56.50
2023-01-19T15:48:29.362Z,49.72
2023-01-19T15:50:56.495Z,52.58
2023-01-19T15:53:24.443Z,55.03
2023-01-19T15:55:55.590Z,59.72
2023-01-19T15:58:24.252Z,69.03
2023-01-19T16:00:57.293Z,61.45
2023-01-19T16:03:26.198Z,39.63
2023-01-19T16:05:53.526Z,44.55
2023-01-19T16:08:22.259Z,36.90
2023-01-19T16:10:49.533Z,42.30
2023-01-19T16:13:17.353Z,46.20
2023-01-19T16:15:44.573Z,34.55
2023-01-19T16:18:12.259Z,39.90
2023-01-19T16:20:39.588Z,44.15
2023-01-19T16:23:14.759Z,52.25
2023-01-19T16:25:42.752Z,47.90
2023-01-19T16:28:10.271Z,59.25
2023-01-19T16:30:37.495Z,68.35
2023-01-19T16:33:05.471Z,74.45
2023-01-19T16:35:32.931Z,63.33
2023-01-19T16:38:00.586Z,53.03
2023-01-19T16:40:27.873Z,61.90
2023-01-19T16:42:55.375Z,57.35
2023-01-19T16:45:23.016Z,74.32
2023-01-19T16:47:52.372Z,50.90
2023-01-19T16:50:19.792Z,55.90
2023-01-19T16:52:47.567Z,52.25
2023-01-19T16:55:14.795Z,42.05
2023-01-19T16:57:42.471Z,52.85
2023-01-19T17:00:10.705Z,48.80
2023-01-19T17:02:39.630Z,50.85
2023-01-19T17:05:07.495Z,51.40
2023-01-19T17:07:36.192Z,47.08
2023-01-19T17:10:05.591Z,41.78
2023-01-19T17:12:33.179Z,46.03
2023-01-19T17:15:00.393Z,43.08
2023-01-19T17:17:28.266Z,44.47
2023-01-19T17:19:55.701Z,50.53
2023-01-19T17:22:23.154Z,47.83
2023-01-19T17:24:50.455Z,59.95
2023-01-19T17:27:17.946Z,57.47
2023-01-19T17:29:45.147Z,56.67
2023-01-19T17:32:12.723Z,53.40
2023-01-19T17:34:39.885Z,58.15
2023-01-19T17:37:07.876Z,63.85
2023-01-19T17:39:35.163Z,54.72
2023-01-19T17:42:02.796Z,49.45
2023-01-19T17:44:31.082Z,47.17
2023-01-19T17:46:59.965Z,49.35
2023-01-19T17:49:27.520Z,50.22
2023-01-19T17:51:56.004Z,58.25
2023-01-19T17:54:23.337Z,60.35
2023-01-19T17:56:51.126Z,65.95
2023-01-19T17:59:18.307Z,65.90
2023-01-19T18:01:46.657Z,52.50
2023-01-19T18:04:15.525Z,51.50
2023-01-19T18:06:43.059Z,42.17
2023-01-19T18:09:12.117Z,61.40
2023-01-19T18:11:39.936Z,62.72
2023-01-19T18:14:07.244Z,64.07
2023-01-19T18:16:36.575Z,61.15
2023-01-19T18:19:04.798Z,65.93
2023-01-19T18:21:32.524Z,50.40
2023-01-19T18:24:03.786Z,48.80
2023-01-19T18:26:34.419Z,38.70
2023-01-19T18:29:01.837Z,39.40
2023-01-19T18:31:33.035Z,44.03
2023-01-19T18:34:04.199Z,50.42
2023-01-19T18:36:35.123Z,234.38
2023-01-19T18:39:04.744Z,177.80
2023-01-19T18:41:36.378Z,97.80
2023-01-19T18:44:03.736Z,95.63
2023-01-19T18:46:31.634Z,159.15
2023-01-19T18:48:58.824Z,115.72
2023-01-19T18:51:27.176Z,128.80
2023-01-19T18:53:59.295Z,274.70
2023-01-19T18:56:28.911Z,111.63
2023-01-19T18:58:56.724Z,89.07
2023-01-19T19:01:36.655Z,56.38
2023-01-19T19:04:04.112Z,55.33
2023-01-19T19:06:31.820Z,36.53
2023-01-19T19:08:59.625Z,43.00
2023-01-19T19:11:28.429Z,44.95
2023-01-19T19:13:58.844Z,41.58
2023-01-19T19:16:27.047Z,40.65
2023-01-19T19:18:57.029Z,41.15
2023-01-19T19:21:25.721Z,39.58
2023-01-19T19:23:55.960Z,37.63
2023-01-19T19:26:25.165Z,46.17
2023-01-19T19:28:52.780Z,34.38
2023-01-19T19:31:22.995Z,36.95
2023-01-19T19:33:51.433Z,35.33
2023-01-19T19:36:20.741Z,41.17
2023-01-19T19:38:51.739Z,45.92
2023-01-19T19:41:22.493Z,39.88
2023-01-19T19:43:50.543Z,52.30
2023-01-19T19:46:20.356Z,44.13
2023-01-19T19:48:50.047Z,40.15
2023-01-19T19:51:27.105Z,45.83
2023-01-19T19:53:56.986Z,51.13
2023-01-19T19:56:26.126Z,37.20
2023-01-19T19:58:55.821Z,36.45
2023-01-19T20:01:29.960Z,35.97
2023-01-19T20:04:03.881Z,47.33
2023-01-19T20:06:37.493Z,44.78
2023-01-19T20:09:06.646Z,50.33
2023-01-19T20:11:36.104Z,45.05
2023-01-19T20:14:08.713Z,49.13
2023-01-19T20:16:36.766Z,37.15
2023-01-19T20:19:04.157Z,34.35
2023-01-19T20:21:36.149Z,36.83
2023-01-19T20:24:10.727Z,39.05
2023-01-19T20:26:41.120Z,34.80
2023-01-19T20:29:10.453Z,42.30
2023-01-19T20:31:42.075Z,45.38
2023-01-19T20:34:11.280Z,38.58
2023-01-19T20:36:39.543Z,38.60
2023-01-19T20:39:11.286Z,35.90
2023-01-19T20:41:43.833Z,33.88
2023-01-19T20:44:13.502Z,38.38
2023-01-19T20:46:41.047Z,30.42
2023-01-19T20:49:08.795Z,33.03
2023-01-19T20:51:37.566Z,30.23
2023-01-19T20:54:04.897Z,29.35
2023-01-19T20:56:32.722Z,31.55
2023-01-19T20:59:00.051Z,32.47
2023-01-19T21:01:27.774Z,36.70
2023-01-19T21:03:55.912Z,33.15
2023-01-19T21:06:23.569Z,46.25
2023-01-19T21:08:51.082Z,44.90
2023-01-19T21:11:21.438Z,40.28
2023-01-19T21:13:49.273Z,33.35
2023-01-19T21:16:16.960Z,33.60
2023-01-19T21:18:44.427Z,30.15
2023-01-19T21:21:28.461Z,34.47
2023-01-19T21:23:58.008Z,35.13
2023-01-19T21:26:25.922Z,40.97
2023-01-19T21:28:53.221Z,40.22
2023-01-19T21:31:23.124Z,43.67
2023-01-19T21:33:53.624Z,37.25
2023-01-19T21:36:21.697Z,39.35
2023-01-19T21:38:50.694Z,42.92
2023-01-19T21:41:18.818Z,44.88
2023-01-19T21:43:46.432Z,69.80
2023-01-19T21:46:19.583Z,45.60
2023-01-19T21:48:47.382Z,38.67
2023-01-19T21:51:16.134Z,41.95
2023-01-19T21:53:43.550Z,38.80
2023-01-19T21:56:11.458Z,40.53
2023-01-19T21:58:38.859Z,37.50
2023-01-19T22:01:11.033Z,39.47
2023-01-19T22:03:38.621Z,36.35
2023-01-19T22:06:08.924Z,45.25
2023-01-19T22:08:37.159Z,33.42
2023-01-19T22:11:08.773Z,35.63
2023-01-19T22:13:38.761Z,33.80
2023-01-19T22:16:10.634Z,31.98
2023-01-19T22:18:40.093Z,32.03
2023-01-19T22:21:13.279Z,32.88
2023-01-19T22:23:41.178Z,49.80
2023-01-19T22:26:10.159Z,49.65
2023-01-19T22:28:37.862Z,46.75
2023-01-19T22:31:07.446Z,46.88
2023-01-19T22:33:34.722Z,43.38
2023-01-19T22:36:13.583Z,40.08
2023-01-19T22:38:41.599Z,41.83
2023-01-19T22:41:18.919Z,37.22
2023-01-19T22:43:46.704Z,37.80
2023-01-19T22:46:18.349Z,32.42
2023-01-19T22:48:46.589Z,25.55
2023-01-19T22:51:15.932Z,30.35
2023-01-19T22:53:43.462Z,30.02
2023-01-19T22:56:16.359Z,34.97
2023-01-19T22:58:44.710Z,27.00
2023-01-19T23:01:21.001Z,22.60
2023-01-19T23:06:22.160Z,25.17
2023-01-19T23:08:50.160Z,30.98
2023-01-19T23:11:23.531Z,32.28
2023-01-19T23:13:51.200Z,33.60
2023-01-19T23:16:19.042Z,31.77
2023-01-19T23:18:47.160Z,40.90
2023-01-19T23:21:18.475Z,31.45
2023-01-19T23:23:46.468Z,34.92
2023-01-19T23:26:18.688Z,34.10
2023-01-19T23:28:47.195Z,32.35
2023-01-19T23:31:27.047Z,32.78
2023-01-19T23:33:56.985Z,33.13
2023-01-19T23:36:26.863Z,33.58
2023-01-19T23:38:57.133Z,33.40
2023-01-19T23:41:25.994Z,30.88
2023-01-19T23:43:53.134Z,30.70
2023-01-19T23:46:21.749Z,29.70
2023-01-19T23:48:49.169Z,32.97
2023-01-19T23:51:25.219Z,32.85
2023-01-19T23:53:52.746Z,39.55
2023-01-19T23:56:22.402Z,34.70
2023-01-19T23:58:56.185Z,32.72
